createdAt,value
2018-04-18T00:02:02.146Z,98.00
2018-04-18T00:04:29.609Z,98.00
2018-04-18T00:06:57.079Z,97.90
2018-04-18T00:09:24.537Z,97.90
2018-04-18T00:11:51.998Z,98.20
2018-04-18T00:14:19.466Z,97.90
2018-04-18T00:16:46.928Z,97.60
2018-04-18T00:19:14.389Z,97.70
2018-04-18T00:21:41.861Z,98.00
2018-04-18T00:24:09.432Z,98.00
2018-04-18T00:26:36.984Z,98.00
2018-04-18T00:29:04.450Z,97.80
2018-04-18T00:31:31.982Z,98.10
2018-04-18T00:33:59.533Z,98.50
2018-04-18T00:36:26.999Z,99.00
2018-04-18T00:38:54.460Z,99.10
2018-04-18T00:41:21.919Z,98.80
2018-04-18T00:43:49.401Z,99.00
2018-04-18T00:46:16.861Z,98.90
2018-04-18T00:48:44.350Z,98.80
2018-04-18T00:51:11.823Z,99.00
2018-04-18T00:53:39.311Z,99.20
2018-04-18T00:56:06.779Z,99.10
2018-04-18T00:58:34.245Z,99.00
2018-04-18T01:01:01.706Z,98.70
2018-04-18T01:03:29.172Z,98.70
2018-04-18T01:05:56.651Z,98.20
2018-04-18T01:08:24.113Z,98.70
2018-04-18T01:10:51.629Z,98.70
2018-04-18T01:13:19.090Z,98.70
2018-04-18T01:33:02.947Z,99.10
2018-04-18T01:35:30.456Z,99.50
2018-04-18T01:37:58.006Z,98.90
2018-04-18T01:40:25.462Z,98.80
2018-04-18T02:00:09.481Z,99.90
2018-04-18T02:02:36.987Z,99.90
2018-04-18T02:05:04.445Z,99.90
2018-04-18T02:07:31.915Z,99.90
2018-04-18T02:09:59.398Z,99.90
2018-04-18T02:12:26.851Z,99.90
2018-04-18T02:14:54.315Z,99.90
2018-04-18T02:17:21.790Z,99.90
2018-04-18T02:19:49.242Z,99.90
2018-04-18T02:22:16.714Z,99.90
2018-04-18T02:24:44.202Z,99.90
2018-04-18T02:27:11.661Z,99.90
2018-04-18T02:29:39.124Z,99.90
2018-04-18T02:32:06.583Z,99.70
2018-04-18T02:34:34.055Z,99.90
2018-04-18T02:37:01.514Z,99.90
2018-04-18T02:39:28.978Z,99.90
2018-04-18T02:41:56.497Z,99.90
2018-04-18T02:44:23.956Z,99.90
2018-04-18T02:46:51.504Z,99.70
2018-04-18T02:49:18.978Z,99.30
2018-04-18T02:51:46.433Z,99.50
2018-04-18T02:54:13.901Z,99.90
2018-04-18T02:56:41.356Z,99.90
2018-04-18T02:59:08.854Z,99.90
2018-04-18T03:01:36.425Z,99.90
2018-04-18T03:04:03.890Z,99.90
2018-04-18T03:06:31.338Z,99.90
2018-04-18T03:08:58.813Z,99.90
2018-04-18T03:11:26.338Z,99.90
2018-04-18T03:13:53.794Z,99.90
2018-04-18T03:16:21.333Z,99.90
2018-04-18T03:53:22.126Z,99.90
2018-04-18T04:13:06.854Z,99.90
2018-04-18T04:15:34.328Z,99.90
2018-04-18T04:18:13.607Z,99.90
2018-04-18T04:20:52.926Z,99.90
2018-04-18T04:23:32.025Z,99.90
2018-04-18T04:43:24.074Z,99.90
2018-04-18T05:03:08.944Z,99.90
2018-04-18T05:05:36.472Z,99.90
2018-04-18T05:08:03.997Z,99.90
2018-04-18T05:10:31.596Z,99.90
2018-04-18T05:12:59.100Z,99.90
2018-04-18T05:18:19.568Z,99.90
2018-04-18T05:20:47.023Z,99.90
2018-04-18T05:23:14.470Z,99.60
2018-04-18T05:25:41.928Z,99.70
2018-04-18T05:28:09.403Z,99.50
2018-04-18T05:30:36.852Z,99.10
2018-04-18T05:33:04.308Z,98.70
2018-04-18T05:35:31.841Z,98.40
2018-04-18T05:37:59.303Z,98.40
2018-04-18T05:40:26.757Z,98.50
2018-04-18T05:42:54.213Z,98.80
2018-04-18T05:45:21.665Z,98.70
2018-04-18T05:47:49.136Z,98.70
2018-04-18T05:50:16.602Z,98.60
2018-04-18T05:52:44.060Z,98.60
2018-04-18T05:55:11.536Z,98.80
2018-04-18T05:57:39.034Z,98.90
2018-04-18T06:00:06.476Z,98.80
2018-04-18T06:02:34.022Z,98.80
2018-04-18T06:05:01.577Z,98.60
2018-04-18T06:07:29.027Z,98.10
2018-04-18T06:09:56.488Z,98.10
2018-04-18T06:12:23.951Z,98.20
2018-04-18T06:14:51.523Z,98.00
2018-04-18T06:17:18.987Z,98.20
2018-04-18T06:19:46.442Z,98.00
2018-04-18T06:22:13.954Z,97.80
2018-04-18T06:24:41.404Z,98.20
2018-04-18T06:27:08.942Z,97.70
2018-04-18T06:29:36.404Z,97.40
2018-04-18T06:32:03.864Z,97.50
2018-04-18T06:34:31.309Z,97.60
2018-04-18T06:36:58.768Z,97.30
2018-04-18T06:39:26.288Z,96.50
2018-04-18T06:41:53.747Z,96.10
2018-04-18T06:44:21.243Z,95.50
2018-04-18T06:46:48.699Z,95.50
2018-04-18T06:49:16.171Z,95.30
2018-04-18T06:51:44.388Z,94.90
2018-04-18T06:54:11.850Z,94.90
2018-04-18T06:56:39.315Z,94.70
2018-04-18T06:59:06.798Z,94.40
2018-04-18T07:01:34.256Z,94.50
2018-04-18T07:04:01.719Z,93.90
2018-04-18T07:06:29.269Z,93.70
2018-04-18T07:08:56.741Z,93.50
2018-04-18T07:11:24.283Z,92.60
2018-04-18T07:13:51.748Z,93.30
2018-04-18T07:16:19.259Z,92.70
2018-04-18T07:18:46.728Z,92.10
2018-04-18T07:21:14.214Z,92.40
2018-04-18T07:23:41.675Z,92.10
2018-04-18T07:26:09.143Z,91.90
2018-04-18T07:28:36.644Z,90.30
2018-04-18T07:31:04.100Z,85.10
2018-04-18T07:33:31.616Z,74.50
2018-04-18T07:35:59.088Z,66.00
2018-04-18T07:38:26.536Z,57.20
2018-04-18T07:40:53.995Z,51.20
2018-04-18T07:43:21.455Z,46.70
2018-04-18T07:45:48.922Z,44.20
2018-04-18T07:48:16.395Z,42.90
2018-04-18T07:50:43.942Z,40.10
2018-04-18T07:53:11.411Z,37.50
2018-04-18T07:55:38.876Z,37.20
2018-04-18T07:58:06.425Z,34.10
2018-04-18T08:00:33.967Z,34.10
2018-04-18T08:03:01.516Z,29.50
2018-04-18T08:05:28.967Z,29.50
2018-04-18T08:07:56.427Z,29.70
2018-04-18T08:10:24.024Z,29.60
2018-04-18T08:12:51.488Z,29.70
2018-04-18T08:15:18.954Z,31.60
2018-04-18T08:17:47.183Z,30.20
2018-04-18T08:20:14.638Z,29.80
2018-04-18T08:22:42.092Z,30.10
2018-04-18T08:25:09.639Z,30.00
2018-04-18T08:27:37.155Z,29.40
2018-04-18T08:30:04.621Z,28.90
2018-04-18T08:32:32.154Z,27.70
2018-04-18T08:34:59.623Z,28.60
2018-04-18T08:37:27.083Z,27.60
2018-04-18T08:39:54.551Z,27.70
2018-04-18T08:42:22.004Z,27.50
2018-04-18T08:44:49.472Z,27.00
2018-04-18T08:47:16.931Z,26.00
2018-04-18T08:49:44.398Z,25.70
2018-04-18T08:52:11.935Z,24.20
2018-04-18T08:54:40.165Z,24.70
2018-04-18T08:57:07.634Z,24.70
2018-04-18T08:59:35.104Z,25.10
2018-04-18T09:02:02.575Z,24.50
2018-04-18T09:04:30.035Z,23.80
2018-04-18T09:06:57.499Z,25.30
2018-04-18T09:09:24.964Z,26.70
2018-04-18T09:11:52.456Z,26.40
2018-04-18T09:14:19.920Z,24.60
2018-04-18T09:16:47.401Z,24.90
2018-04-18T09:19:14.854Z,24.00
2018-04-18T09:21:42.304Z,25.80
2018-04-18T09:24:09.764Z,24.10
2018-04-18T09:26:37.216Z,23.30
2018-04-18T09:29:04.684Z,24.40
2018-04-18T09:31:32.139Z,22.10
2018-04-18T09:34:00.037Z,22.30
2018-04-18T09:36:27.497Z,21.80
2018-04-18T09:38:54.962Z,22.70
2018-04-18T09:41:22.477Z,21.90
2018-04-18T09:43:49.945Z,20.80
2018-04-18T09:46:17.421Z,20.90
2018-04-18T09:48:44.880Z,22.30
2018-04-18T09:51:12.330Z,21.90
2018-04-18T09:53:39.798Z,22.20
2018-04-18T09:56:07.266Z,21.60
2018-04-18T09:58:34.758Z,21.60
2018-04-18T10:01:02.226Z,21.40
2018-04-18T10:03:29.676Z,21.60
2018-04-18T10:05:57.207Z,21.50
2018-04-18T10:08:24.767Z,21.20
2018-04-18T10:10:52.220Z,21.00
2018-04-18T10:13:19.771Z,22.20
2018-04-18T10:15:47.232Z,19.10
2018-04-18T10:18:14.715Z,17.90
2018-04-18T10:20:42.195Z,17.50
2018-04-18T10:23:09.655Z,16.70
2018-04-18T10:25:37.122Z,18.40
2018-04-18T10:28:04.589Z,19.00
2018-04-18T10:30:32.160Z,18.00
2018-04-18T10:32:59.627Z,17.90
2018-04-18T10:35:27.148Z,18.40
2018-04-18T10:37:54.609Z,18.20
2018-04-18T10:40:22.230Z,20.30
2018-04-18T10:42:49.690Z,20.10
2018-04-18T10:45:17.160Z,19.90
2018-04-18T10:47:44.621Z,21.30
2018-04-18T10:50:12.079Z,20.60
2018-04-18T10:52:39.548Z,22.00
2018-04-18T10:55:07.020Z,21.70
2018-04-18T10:57:34.590Z,22.00
2018-04-18T11:00:02.069Z,22.10
2018-04-18T11:02:29.539Z,22.60
2018-04-18T11:04:56.991Z,22.70
2018-04-18T11:07:24.465Z,21.80
2018-04-18T11:09:51.915Z,21.70
2018-04-18T11:12:19.385Z,23.60
2018-04-18T11:14:46.857Z,22.00
2018-04-18T11:17:14.319Z,24.70
2018-04-18T11:19:42.551Z,21.90
2018-04-18T11:22:10.017Z,21.90
2018-04-18T11:24:37.533Z,22.00
2018-04-18T11:27:04.992Z,21.10
2018-04-18T11:29:32.448Z,22.80
2018-04-18T11:31:59.942Z,23.70
2018-04-18T11:34:27.444Z,25.70
2018-04-18T11:36:54.964Z,24.90
2018-04-18T11:39:22.442Z,24.80
2018-04-18T11:41:49.925Z,25.00
2018-04-18T11:44:17.390Z,24.80
2018-04-18T11:46:44.889Z,25.70
2018-04-18T11:49:12.520Z,25.70
2018-04-18T11:51:40.045Z,25.20
2018-04-18T11:54:07.503Z,25.30
2018-04-18T11:56:35.729Z,25.20
2018-04-18T11:59:03.195Z,25.10
2018-04-18T12:01:30.657Z,25.00
2018-04-18T12:03:58.112Z,25.10
2018-04-18T12:06:25.571Z,25.90
2018-04-18T12:08:53.096Z,25.60
2018-04-18T12:11:20.553Z,25.20
2018-04-18T12:13:48.012Z,27.80
2018-04-18T12:16:15.472Z,26.30
2018-04-18T12:18:42.937Z,27.60
2018-04-18T12:21:10.401Z,27.50
2018-04-18T12:23:37.866Z,25.50
2018-04-18T12:26:05.335Z,25.30
2018-04-18T12:28:32.791Z,27.10
2018-04-18T12:31:00.250Z,25.60
2018-04-18T12:33:27.703Z,24.70
2018-04-18T12:35:55.158Z,26.60
2018-04-18T12:38:22.689Z,27.10
2018-04-18T12:40:50.174Z,26.50
2018-04-18T12:43:17.743Z,25.90
2018-04-18T12:45:45.198Z,24.50
2018-04-18T12:48:12.663Z,25.90
2018-04-18T12:50:40.183Z,26.40
2018-04-18T12:53:07.878Z,26.30
2018-04-18T12:55:35.359Z,26.70
2018-04-18T12:58:02.830Z,28.20
2018-04-18T13:00:30.348Z,26.10
2018-04-18T13:02:57.867Z,26.10
2018-04-18T13:05:25.462Z,25.70
2018-04-18T13:07:52.944Z,26.70
2018-04-18T13:10:20.405Z,25.40
2018-04-18T13:12:47.911Z,27.30
2018-04-18T13:15:15.425Z,25.70
2018-04-18T13:17:43.037Z,24.50
2018-04-18T13:20:10.533Z,22.60
2018-04-18T13:22:38.003Z,21.40
2018-04-18T13:25:05.582Z,22.10
2018-04-18T13:27:33.205Z,23.70
2018-04-18T13:30:00.775Z,22.30
2018-04-18T13:32:28.324Z,23.40
2018-04-18T13:34:56.129Z,22.30
2018-04-18T13:37:23.735Z,22.80
2018-04-18T14:17:15.366Z,23.00
2018-04-18T14:19:42.856Z,22.60
2018-04-18T14:22:10.735Z,21.90
2018-04-18T14:24:38.298Z,22.10
2018-04-18T14:27:05.983Z,22.10
2018-04-18T14:46:52.737Z,23.60
2018-04-18T14:49:20.965Z,26.60
2018-04-18T15:09:06.197Z,24.90
2018-04-18T15:11:33.725Z,24.70
2018-04-18T15:14:25.056Z,24.90
2018-04-18T15:16:52.665Z,25.30
2018-04-18T15:19:20.206Z,25.30
2018-04-18T15:42:19.228Z,27.00
2018-04-18T15:44:46.764Z,26.30
2018-04-18T16:21:46.372Z,29.10
2018-04-18T16:41:28.924Z,34.40
2018-04-18T16:43:56.415Z,34.00
2018-04-18T16:46:24.214Z,33.50
2018-04-18T16:48:51.696Z,33.10
2018-04-18T17:05:42.419Z,33.80
2018-04-18T17:08:10.678Z,34.80
2018-04-18T17:10:38.182Z,34.20
2018-04-18T17:30:25.003Z,37.50
2018-04-18T17:32:52.519Z,37.70
2018-04-18T17:35:20.028Z,38.10
2018-04-18T17:37:47.527Z,39.20
2018-04-18T17:40:15.068Z,39.40
2018-04-18T17:42:42.628Z,39.60
2018-04-18T17:45:10.155Z,39.90
2018-04-18T17:47:37.627Z,41.50
2018-04-18T18:07:21.793Z,45.50
2018-04-18T18:09:49.254Z,47.70
2018-04-18T18:12:16.779Z,50.00
2018-04-18T18:32:01.804Z,60.10
2018-04-18T18:34:29.300Z,62.60
2018-04-18T18:54:13.929Z,73.10
2018-04-18T19:14:01.034Z,75.80
2018-04-18T19:16:28.535Z,77.50
2018-04-18T19:18:56.015Z,79.30
2018-04-18T19:21:23.510Z,79.90
2018-04-18T19:23:51.167Z,80.40
2018-04-18T19:57:58.099Z,87.90
2018-04-18T20:17:43.319Z,90.20
2018-04-18T20:20:10.793Z,90.30
2018-04-18T20:22:38.301Z,90.30
2018-04-18T20:25:05.787Z,90.10
2018-04-18T20:27:33.312Z,90.60
2018-04-18T20:30:00.866Z,90.40
2018-04-18T20:32:28.331Z,90.90
2018-04-18T20:34:55.913Z,90.60
2018-04-18T20:37:23.393Z,90.70
2018-04-18T20:39:50.871Z,91.30
2018-04-18T20:42:18.383Z,91.30
2018-04-18T20:44:45.998Z,91.20
2018-04-18T20:47:13.556Z,91.20
2018-04-18T20:49:41.028Z,91.70
2018-04-18T20:52:08.583Z,91.30
2018-04-18T20:54:36.055Z,90.80
2018-04-18T21:14:20.461Z,92.30
2018-04-18T21:16:47.936Z,92.70
2018-04-18T21:19:15.455Z,93.20
2018-04-18T21:21:42.978Z,93.20
2018-04-18T21:24:10.459Z,93.30
2018-04-18T21:26:38.056Z,93.50
2018-04-18T21:29:05.495Z,93.60
2018-04-18T21:31:32.977Z,93.80
2018-04-18T21:34:01.190Z,93.80
2018-04-18T21:53:44.413Z,93.70
2018-04-18T21:56:11.888Z,93.70
2018-04-18T21:58:39.347Z,92.60
2018-04-18T22:01:06.828Z,92.40
2018-04-18T22:03:34.313Z,92.70
2018-04-18T22:06:01.785Z,93.00
2018-04-18T22:08:29.261Z,93.50
2018-04-18T22:10:56.739Z,94.10
2018-04-18T22:13:24.205Z,94.30
2018-04-18T22:15:51.676Z,95.00
2018-04-18T22:18:19.154Z,95.00
2018-04-18T22:20:46.706Z,95.10
2018-04-18T22:23:14.171Z,95.30
2018-04-18T22:25:41.647Z,95.50
2018-04-18T22:28:09.128Z,95.70
2018-04-18T22:30:36.606Z,95.80
2018-04-18T22:33:04.105Z,96.50
2018-04-18T22:35:31.584Z,96.20
2018-04-18T22:37:59.059Z,96.60
2018-04-18T22:40:27.289Z,96.50
2018-04-18T22:42:54.754Z,96.60
2018-04-18T22:45:22.214Z,96.30
2018-04-18T22:47:49.677Z,96.10
2018-04-18T22:50:17.241Z,95.90
2018-04-18T22:52:45.495Z,96.70
2018-04-18T22:55:12.952Z,96.60
2018-04-18T22:57:40.413Z,96.80
2018-04-18T23:00:08.636Z,96.60
2018-04-18T23:02:36.092Z,96.60
2018-04-18T23:05:04.347Z,96.60
2018-04-18T23:07:31.825Z,96.60
2018-04-18T23:09:59.311Z,96.90
2018-04-18T23:12:26.766Z,96.90
2018-04-18T23:14:54.225Z,96.90
2018-04-18T23:17:22.473Z,97.00
2018-04-18T23:19:49.932Z,97.00
2018-04-18T23:22:29.234Z,97.00
2018-04-18T23:24:56.688Z,97.00
2018-04-18T23:27:24.180Z,97.30
2018-04-18T23:29:51.673Z,96.60
2018-04-18T23:32:19.136Z,95.90
2018-04-18T23:34:46.597Z,96.10
2018-04-18T23:37:14.056Z,96.30
2018-04-18T23:39:41.513Z,96.30
2018-04-18T23:42:10.526Z,97.00
2018-04-18T23:44:38.018Z,96.70
2018-04-18T23:47:05.467Z,97.10
2018-04-18T23:49:32.977Z,96.70
2018-04-18T23:52:00.456Z,96.70
2018-04-18T23:54:27.925Z,96.80
2018-04-18T23:56:55.525Z,97.00
2018-04-18T23:59:23.010Z,97.30
